createdAt,value
2022-12-28T00:02:25.674Z,3.05
2022-12-28T00:05:27.789Z,3.13
2022-12-28T00:08:29.987Z,2.60
2022-12-28T00:11:32.014Z,3.15
2022-12-28T00:14:34.073Z,2.92
2022-12-28T00:17:36.053Z,2.60
2022-12-28T00:20:38.131Z,2.45
2022-12-28T00:23:40.139Z,2.83
2022-12-28T00:26:42.263Z,2.20
2022-12-28T00:29:44.365Z,1.83
2022-12-28T00:32:46.465Z,1.95
2022-12-28T00:35:56.979Z,2.70
2022-12-28T00:38:59.211Z,2.03
2022-12-28T00:42:01.342Z,1.85
2022-12-28T00:45:06.193Z,1.85
2022-12-28T00:48:08.210Z,1.83
2022-12-28T00:51:19.120Z,1.58
2022-12-28T00:54:21.165Z,1.65
2022-12-28T00:57:23.130Z,1.52
2022-12-28T01:00:28.225Z,1.60
2022-12-28T01:03:30.645Z,1.58
2022-12-28T01:06:33.030Z,1.58
2022-12-28T01:09:35.205Z,2.60
2022-12-28T01:12:38.406Z,2.03
2022-12-28T01:15:40.724Z,2.33
2022-12-28T01:18:45.564Z,2.00
2022-12-28T01:21:49.904Z,2.10
2022-12-28T01:24:52.389Z,1.95
2022-12-28T01:27:55.083Z,2.15
2022-12-28T01:30:58.214Z,1.95
2022-12-28T01:34:00.640Z,1.70
2022-12-28T01:37:02.760Z,1.58
2022-12-28T01:40:05.436Z,2.03
2022-12-28T01:43:14.101Z,2.08
2022-12-28T01:46:35.337Z,1.40
2022-12-28T01:49:45.152Z,2.10
2022-12-28T01:52:56.049Z,1.98
2022-12-28T01:55:58.184Z,1.77
2022-12-28T01:59:00.904Z,2.60
2022-12-28T02:02:04.446Z,2.50
2022-12-28T02:05:08.222Z,2.47
2022-12-28T02:08:17.139Z,2.50
2022-12-28T02:11:20.154Z,3.42
2022-12-28T02:14:23.204Z,3.15
2022-12-28T02:17:26.459Z,3.30
2022-12-28T02:20:53.580Z,2.30
2022-12-28T02:24:24.439Z,2.60
2022-12-28T02:27:37.159Z,2.60
2022-12-28T02:30:54.745Z,3.10
2022-12-28T02:34:15.560Z,2.30
2022-12-28T02:37:28.780Z,2.83
2022-12-28T02:40:42.340Z,2.08
2022-12-28T02:43:45.496Z,2.47
2022-12-28T02:47:06.256Z,2.75
2022-12-28T02:50:13.523Z,2.47
2022-12-28T02:53:30.617Z,2.38
2022-12-28T02:56:52.996Z,3.17
2022-12-28T03:00:11.267Z,3.15
2022-12-28T03:03:25.270Z,3.83
2022-12-28T03:07:22.175Z,3.13
2022-12-28T03:10:40.669Z,3.17
2022-12-28T03:13:48.660Z,4.23
2022-12-28T03:17:18.106Z,4.70
2022-12-28T03:20:42.994Z,4.85
2022-12-28T03:24:06.132Z,4.25
2022-12-28T03:27:33.555Z,3.90
2022-12-28T03:30:57.996Z,4.68
2022-12-28T03:34:08.181Z,3.97
2022-12-28T03:38:00.386Z,4.18
2022-12-28T03:41:09.169Z,3.85
2022-12-28T03:44:19.954Z,4.20
2022-12-28T03:47:26.164Z,3.88
2022-12-28T03:50:29.289Z,3.63
2022-12-28T03:53:42.111Z,4.35
2022-12-28T03:56:49.013Z,3.53
2022-12-28T03:59:52.151Z,3.40
2022-12-28T04:02:54.468Z,3.78
2022-12-28T04:05:57.069Z,3.30
2022-12-28T04:09:00.113Z,3.40
2022-12-28T04:12:05.895Z,4.03
2022-12-28T04:15:28.943Z,3.15
2022-12-28T04:18:32.746Z,4.00
2022-12-28T04:21:34.990Z,3.80
2022-12-28T04:24:38.619Z,3.40
2022-12-28T04:27:42.443Z,3.83
2022-12-28T04:31:00.911Z,3.00
2022-12-28T04:34:03.195Z,3.90
2022-12-28T04:37:09.048Z,3.47
2022-12-28T04:40:11.932Z,3.58
2022-12-28T04:43:14.054Z,3.88
2022-12-28T04:46:18.829Z,2.80
2022-12-28T04:49:20.901Z,3.70
2022-12-28T04:52:23.084Z,3.70
2022-12-28T04:55:32.645Z,3.13
2022-12-28T04:58:36.601Z,3.42
2022-12-28T05:01:38.833Z,3.85
2022-12-28T05:04:40.936Z,3.63
2022-12-28T05:07:42.985Z,3.80
2022-12-28T05:10:45.000Z,4.50
2022-12-28T05:13:49.080Z,4.43
2022-12-28T05:16:54.628Z,4.53
2022-12-28T05:19:56.660Z,4.93
2022-12-28T05:22:58.762Z,5.45
2022-12-28T05:26:01.793Z,6.43
2022-12-28T05:29:04.839Z,7.35
2022-12-28T05:32:06.923Z,7.80
2022-12-28T05:35:09.520Z,6.93
2022-12-28T05:38:11.947Z,6.78
2022-12-28T05:41:13.938Z,7.78
2022-12-28T05:44:16.010Z,7.88
2022-12-28T05:47:18.211Z,8.05
2022-12-28T05:50:20.583Z,9.13
2022-12-28T05:53:22.694Z,6.78
2022-12-28T05:56:30.403Z,6.68
2022-12-28T05:59:32.488Z,5.32
2022-12-28T06:02:34.756Z,5.63
2022-12-28T06:05:37.070Z,6.18
2022-12-28T06:08:40.117Z,5.45
2022-12-28T06:11:42.211Z,6.50
2022-12-28T06:14:44.256Z,6.07
2022-12-28T06:17:47.280Z,6.35
2022-12-28T06:20:55.290Z,6.20
2022-12-28T06:24:00.743Z,6.25
2022-12-28T06:27:02.757Z,6.72
2022-12-28T06:30:05.295Z,6.80
2022-12-28T06:33:07.304Z,6.57
2022-12-28T06:36:19.923Z,6.63
2022-12-28T06:39:23.058Z,6.97
2022-12-28T06:42:26.471Z,7.13
2022-12-28T06:45:28.590Z,7.57
2022-12-28T06:48:32.507Z,8.20
2022-12-28T06:51:38.899Z,8.68
2022-12-28T06:54:40.966Z,8.02
2022-12-28T06:57:43.026Z,8.73
2022-12-28T07:00:45.323Z,8.63
2022-12-28T07:03:49.239Z,9.82
2022-12-28T07:06:51.283Z,9.35
2022-12-28T07:09:53.517Z,7.70
2022-12-28T07:12:56.763Z,8.75
2022-12-28T07:16:02.703Z,8.50
2022-12-28T07:19:04.935Z,7.22
2022-12-28T07:22:07.032Z,7.38
2022-12-28T07:25:11.615Z,8.82
2022-12-28T07:28:16.536Z,12.73
2022-12-28T07:31:21.246Z,11.48
2022-12-28T07:34:23.722Z,11.98
2022-12-28T07:37:26.204Z,12.68
2022-12-28T07:40:28.753Z,11.65
2022-12-28T07:43:30.842Z,11.35
2022-12-28T07:46:35.257Z,12.27
2022-12-28T07:49:37.375Z,12.05
2022-12-28T07:52:39.460Z,11.40
2022-12-28T07:55:43.764Z,12.18
2022-12-28T07:58:53.726Z,12.30
2022-12-28T08:01:55.829Z,10.60
2022-12-28T08:04:58.024Z,12.73
2022-12-28T08:08:03.522Z,18.02
2022-12-28T08:11:17.681Z,14.23
2022-12-28T08:14:19.692Z,10.95
2022-12-28T08:17:21.851Z,12.82
2022-12-28T08:20:23.939Z,13.52
2022-12-28T08:23:25.896Z,14.02
2022-12-28T08:26:33.727Z,11.20
2022-12-28T08:29:35.795Z,12.33
2022-12-28T08:32:37.906Z,11.57
2022-12-28T08:35:39.941Z,11.65
2022-12-28T08:38:44.099Z,12.25
2022-12-28T08:41:46.157Z,12.73
2022-12-28T08:44:48.332Z,10.93
2022-12-28T08:47:51.717Z,12.68
2022-12-28T08:50:55.971Z,12.48
2022-12-28T08:53:58.676Z,11.82
2022-12-28T08:57:00.764Z,10.35
2022-12-28T09:00:06.149Z,11.77
2022-12-28T09:03:08.302Z,11.05
2022-12-28T09:06:13.079Z,10.80
2022-12-28T09:09:17.599Z,8.95
2022-12-28T09:12:19.829Z,8.98
2022-12-28T09:15:21.989Z,8.10
2022-12-28T09:18:24.024Z,6.85
2022-12-28T09:21:29.156Z,7.47
2022-12-28T09:24:31.256Z,6.47
2022-12-28T09:27:33.392Z,6.05
2022-12-28T09:30:35.550Z,6.50
2022-12-28T09:37:18.375Z,6.55
2022-12-28T09:40:21.070Z,6.40
2022-12-28T09:43:44.003Z,7.05
2022-12-28T09:46:55.348Z,6.25
2022-12-28T09:50:13.207Z,7.57
2022-12-28T09:53:23.014Z,8.82
2022-12-28T09:56:46.186Z,7.35
2022-12-28T09:59:49.355Z,8.55
2022-12-28T10:03:02.745Z,7.78
2022-12-28T10:06:11.116Z,6.25
2022-12-28T10:09:25.433Z,6.68
2022-12-28T10:12:29.969Z,4.55
2022-12-28T10:15:32.918Z,6.15
2022-12-28T10:18:39.659Z,6.82
2022-12-28T10:21:43.544Z,5.60
2022-12-28T10:24:47.413Z,5.45
2022-12-28T10:27:50.023Z,3.70
2022-12-28T10:31:11.993Z,4.78
2022-12-28T10:34:18.077Z,4.18
2022-12-28T10:37:20.587Z,4.63
2022-12-28T10:40:33.598Z,4.90
2022-12-28T10:43:39.927Z,5.22
2022-12-28T10:46:52.786Z,4.70
2022-12-28T10:50:26.541Z,4.30
2022-12-28T10:53:17.106Z,4.88
2022-12-28T10:56:30.224Z,4.38
2022-12-28T10:59:33.507Z,3.60
2022-12-28T11:02:35.840Z,5.38
2022-12-28T11:05:40.421Z,4.35
2022-12-28T11:08:45.217Z,4.85
2022-12-28T11:11:49.758Z,7.50
2022-12-28T11:14:52.877Z,4.53
2022-12-28T11:18:17.670Z,3.38
2022-12-28T11:21:24.330Z,4.35
2022-12-28T11:24:39.252Z,4.90
2022-12-28T11:27:41.802Z,4.47
2022-12-28T11:30:45.079Z,4.57
2022-12-28T11:33:54.453Z,2.88
2022-12-28T11:36:57.003Z,2.30
2022-12-28T11:39:59.642Z,3.33
2022-12-28T11:43:01.821Z,3.13
2022-12-28T11:46:25.982Z,2.85
2022-12-28T11:49:31.750Z,3.22
2022-12-28T11:52:46.049Z,3.33
2022-12-28T11:55:59.369Z,2.92
2022-12-28T11:59:09.419Z,3.08
2022-12-28T12:02:20.254Z,2.60
2022-12-28T12:05:40.034Z,1.58
2022-12-28T12:08:42.208Z,2.55
2022-12-28T12:11:44.547Z,2.00
2022-12-28T12:14:53.196Z,2.47
2022-12-28T12:21:15.520Z,1.58
2022-12-28T12:24:30.903Z,1.50
2022-12-28T12:27:45.565Z,1.63
2022-12-28T12:30:48.240Z,2.13
2022-12-28T12:33:58.419Z,1.83
2022-12-28T12:37:12.625Z,1.70
2022-12-28T12:40:14.720Z,1.70
2022-12-28T12:43:33.118Z,2.30
2022-12-28T12:47:29.560Z,2.80
2022-12-28T12:51:12.612Z,2.38
2022-12-28T12:54:40.909Z,1.73
2022-12-28T12:58:04.337Z,2.40
2022-12-28T13:01:33.818Z,1.55
2022-12-28T13:05:02.857Z,2.58
2022-12-28T13:08:20.082Z,1.83
2022-12-28T13:11:26.052Z,1.50
2022-12-28T13:14:29.217Z,1.85
2022-12-28T13:17:31.588Z,2.13
2022-12-28T13:20:33.924Z,2.17
2022-12-28T13:23:50.411Z,1.98
2022-12-28T13:27:12.426Z,2.60
2022-12-28T13:30:28.927Z,2.08
2022-12-28T13:34:25.279Z,7.60
2022-12-28T13:37:36.093Z,1.92
2022-12-28T13:40:57.644Z,1.85
2022-12-28T13:44:22.804Z,2.53
2022-12-28T13:47:44.755Z,2.80
2022-12-28T13:51:09.519Z,2.65
2022-12-28T13:54:20.422Z,2.53
2022-12-28T13:57:49.021Z,2.45
2022-12-28T14:01:04.275Z,3.25
2022-12-28T14:07:37.822Z,2.63
2022-12-28T14:10:43.792Z,2.45
2022-12-28T14:13:47.903Z,2.97
2022-12-28T14:17:01.358Z,3.35
2022-12-28T14:20:05.915Z,3.85
2022-12-28T14:23:31.646Z,4.68
2022-12-28T14:26:34.570Z,5.05
2022-12-28T14:29:41.884Z,4.63
2022-12-28T14:32:44.723Z,5.38
2022-12-28T14:36:01.606Z,5.78
2022-12-28T14:39:05.478Z,6.18
2022-12-28T14:49:33.955Z,8.02
2022-12-28T14:52:46.519Z,9.15
2022-12-28T14:56:03.666Z,9.60
2022-12-28T14:59:18.143Z,9.35
2022-12-28T15:00:25.456Z,6.70
2022-12-28T15:02:41.625Z,8.73
2022-12-28T15:05:54.717Z,8.02
2022-12-28T15:09:00.002Z,8.27
2022-12-28T15:12:17.905Z,8.63
2022-12-28T15:15:24.430Z,12.35
2022-12-28T15:18:29.192Z,11.52
2022-12-28T15:21:31.360Z,11.02
2022-12-28T15:24:37.653Z,11.10
2022-12-28T15:27:40.716Z,10.90
2022-12-28T15:30:45.936Z,14.13
2022-12-28T15:33:48.844Z,17.17
2022-12-28T15:36:53.319Z,17.90
2022-12-28T15:39:55.480Z,19.15
2022-12-28T15:42:58.690Z,19.20
2022-12-28T15:46:00.862Z,21.75
2022-12-28T15:49:04.309Z,18.90
2022-12-28T15:52:06.322Z,18.73
2022-12-28T15:55:08.760Z,19.55
2022-12-28T15:58:10.903Z,18.35
2022-12-28T16:01:13.116Z,19.33
2022-12-28T16:04:15.532Z,20.23
2022-12-28T16:07:19.377Z,20.05
2022-12-28T16:10:21.642Z,19.52
2022-12-28T16:13:23.854Z,18.92
2022-12-28T16:16:28.363Z,18.65
2022-12-28T16:19:31.773Z,19.83
2022-12-28T16:22:33.779Z,19.38
2022-12-28T16:25:35.909Z,19.17
2022-12-28T16:28:38.493Z,19.95
2022-12-28T16:31:41.479Z,19.98
2022-12-28T16:34:43.868Z,19.17
2022-12-28T16:37:46.048Z,18.13
2022-12-28T16:40:48.231Z,19.45
2022-12-28T16:43:52.748Z,17.92
2022-12-28T16:46:59.764Z,19.02
2022-12-28T16:50:02.164Z,19.27
2022-12-28T16:53:24.726Z,21.27
2022-12-28T16:56:27.376Z,19.35
2022-12-28T16:59:30.190Z,21.75
2022-12-28T17:02:32.418Z,20.23
2022-12-28T17:05:35.614Z,21.38
2022-12-28T17:08:38.350Z,23.67
2022-12-28T17:11:40.473Z,24.13
2022-12-28T17:14:42.572Z,24.25
2022-12-28T17:17:44.781Z,27.88
2022-12-28T17:20:46.826Z,28.23
2022-12-28T17:23:49.860Z,28.17
2022-12-28T17:26:52.846Z,26.73
2022-12-28T17:29:54.915Z,25.42
2022-12-28T17:32:57.773Z,24.42
2022-12-28T17:36:02.914Z,24.15
2022-12-28T17:39:05.877Z,26.85
2022-12-28T17:42:12.083Z,22.48
2022-12-28T17:45:15.487Z,22.70
2022-12-28T17:48:20.523Z,22.83
2022-12-28T17:51:24.395Z,24.92
2022-12-28T17:54:26.548Z,25.17
2022-12-28T17:57:30.791Z,25.15
2022-12-28T18:00:36.598Z,26.70
2022-12-28T18:03:38.949Z,25.77
2022-12-28T18:06:41.697Z,25.70
2022-12-28T18:09:43.896Z,24.25
2022-12-28T18:12:47.082Z,24.23
2022-12-28T18:15:52.220Z,27.15
2022-12-28T18:18:55.527Z,26.55
2022-12-28T18:21:57.807Z,25.92
2022-12-28T18:25:00.875Z,31.30
2022-12-28T18:28:03.060Z,28.63
2022-12-28T18:31:05.731Z,28.77
2022-12-28T18:34:07.967Z,29.67
2022-12-28T18:37:10.588Z,32.20
2022-12-28T18:40:12.699Z,33.30
2022-12-28T18:43:14.740Z,31.35
2022-12-28T18:46:20.325Z,33.22
2022-12-28T18:49:23.332Z,33.78
2022-12-28T18:52:25.612Z,34.00
2022-12-28T18:55:28.304Z,34.42
2022-12-28T18:58:33.447Z,34.83
2022-12-28T19:05:02.031Z,38.03
2022-12-28T19:08:09.424Z,24.35
2022-12-28T19:11:11.736Z,22.00
2022-12-28T19:14:15.838Z,20.77
2022-12-28T19:17:18.485Z,22.48
2022-12-28T19:20:20.518Z,18.48
2022-12-28T19:23:23.256Z,18.80
2022-12-28T19:26:25.895Z,32.35
2022-12-28T19:29:27.886Z,34.60
2022-12-28T19:32:31.085Z,31.13
2022-12-28T19:35:33.813Z,27.83
2022-12-28T19:38:36.991Z,28.38
2022-12-28T19:41:40.009Z,31.25
2022-12-28T19:44:43.945Z,26.15
2022-12-28T19:47:46.461Z,29.60
2022-12-28T19:50:48.540Z,27.30
2022-12-28T19:53:50.715Z,26.10
2022-12-28T19:56:53.233Z,24.80
2022-12-28T19:59:56.057Z,25.27
2022-12-28T20:02:58.422Z,25.02
2022-12-28T20:06:16.802Z,22.77
2022-12-28T20:09:18.958Z,24.23
2022-12-28T20:12:22.832Z,24.13
2022-12-28T20:15:25.061Z,24.42
2022-12-28T20:18:27.392Z,23.25
2022-12-28T20:21:29.746Z,25.17
2022-12-28T20:24:33.050Z,25.38
2022-12-28T20:27:35.254Z,26.83
2022-12-28T20:30:40.065Z,28.13
2022-12-28T20:33:44.031Z,28.15
2022-12-28T20:36:46.524Z,29.88
2022-12-28T20:39:49.685Z,25.42
2022-12-28T20:43:12.395Z,28.85
2022-12-28T20:46:14.617Z,29.05
2022-12-28T20:49:19.184Z,26.88
2022-12-28T20:52:21.221Z,26.13
2022-12-28T20:55:23.412Z,27.77
2022-12-28T20:58:25.508Z,24.00
2022-12-28T21:01:27.690Z,24.48
2022-12-28T21:04:30.802Z,24.45
2022-12-28T21:07:35.173Z,23.45
2022-12-28T21:10:37.420Z,22.80
2022-12-28T21:13:44.155Z,22.05
2022-12-28T21:16:47.851Z,21.58
2022-12-28T21:19:50.140Z,23.17
2022-12-28T21:22:52.401Z,18.73
2022-12-28T21:26:01.071Z,19.63
2022-12-28T21:29:03.184Z,16.25
2022-12-28T21:32:05.533Z,15.73
2022-12-28T21:35:08.206Z,17.70
2022-12-28T21:38:10.451Z,18.10
2022-12-28T21:41:41.788Z,14.35
2022-12-28T21:44:45.892Z,14.25
2022-12-28T21:47:47.975Z,14.30
2022-12-28T21:50:50.039Z,12.63
2022-12-28T21:53:52.533Z,12.43
2022-12-28T21:56:56.448Z,11.93
2022-12-28T22:00:01.028Z,9.05
2022-12-28T22:03:25.605Z,9.65
2022-12-28T22:06:35.554Z,8.88
2022-12-28T22:09:58.222Z,9.98
2022-12-28T22:13:00.415Z,8.95
2022-12-28T22:16:03.164Z,9.63
2022-12-28T22:19:05.724Z,8.70
2022-12-28T22:22:07.786Z,9.30
2022-12-28T22:25:11.319Z,10.10
2022-12-28T22:28:13.428Z,11.00
2022-12-28T22:31:16.561Z,10.75
2022-12-28T22:34:18.828Z,9.57
2022-12-28T22:37:20.982Z,9.95
2022-12-28T22:40:23.479Z,10.00
2022-12-28T22:43:25.801Z,10.00
2022-12-28T22:46:27.986Z,8.82
2022-12-28T22:49:30.548Z,9.85
2022-12-28T22:52:32.601Z,10.18
2022-12-28T22:55:34.624Z,9.27
2022-12-28T22:58:36.944Z,10.38
2022-12-28T23:01:39.757Z,9.43
2022-12-28T23:04:42.220Z,11.23
2022-12-28T23:07:44.387Z,10.75
2022-12-28T23:11:01.138Z,11.02
2022-12-28T23:14:31.873Z,11.25
2022-12-28T23:17:34.013Z,11.40
2022-12-28T23:20:59.840Z,10.43
2022-12-28T23:24:20.327Z,13.18
2022-12-28T23:27:22.486Z,12.05
2022-12-28T23:30:24.592Z,12.48
2022-12-28T23:33:26.664Z,11.32
2022-12-28T23:36:28.782Z,11.50
2022-12-28T23:39:30.963Z,13.55
2022-12-28T23:42:35.037Z,13.80
2022-12-28T23:45:38.702Z,12.93
2022-12-28T23:48:40.858Z,12.23
2022-12-28T23:51:47.322Z,11.35
2022-12-28T23:54:49.427Z,11.40
2022-12-28T23:57:51.465Z,11.90
